sensor_id;sensor_type;location;lat;lon;timestamp;P1;durP1;ratioP1;P2;durP2;ratioP2
69956;SDS011;57283;54.816;9.482;2023-09-19T00:01:40;5.13;;;2.30;;
69956;SDS011;57283;54.816;9.482;2023-09-19T00:04:11;5.63;;;2.72;;
69956;SDS011;57283;54.816;9.482;2023-09-19T00:06:39;5.10;;;2.40;;
69956;SDS011;57283;54.816;9.482;2023-09-19T00:09:06;6.05;;;2.10;;
69956;SDS011;57283;54.816;9.482;2023-09-19T00:11:37;5.30;;;2.10;;
69956;SDS011;57283;54.816;9.482;2023-09-19T00:14:05;5.03;;;2.17;;
69956;SDS011;57283;54.816;9.482;2023-09-19T00:16:35;7.10;;;2.42;;
69956;SDS011;57283;54.816;9.482;2023-09-19T00:19:03;8.07;;;2.40;;
69956;SDS011;57283;54.816;9.482;2023-09-19T00:21:36;7.70;;;2.40;;
69956;SDS011;57283;54.816;9.482;2023-09-19T00:24:04;7.10;;;2.13;;
69956;SDS011;57283;54.816;9.482;2023-09-19T00:26:33;6.35;;;1.83;;
69956;SDS011;57283;54.816;9.482;2023-09-19T00:29:00;7.47;;;2.15;;
69956;SDS011;57283;54.816;9.482;2023-09-19T00:31:34;10.63;;;2.00;;
69956;SDS011;57283;54.816;9.482;2023-09-19T00:34:04;9.18;;;2.22;;
69956;SDS011;57283;54.816;9.482;2023-09-19T00:36:32;10.52;;;1.90;;
69956;SDS011;57283;54.816;9.482;2023-09-19T00:39:02;9.93;;;2.40;;
69956;SDS011;57283;54.816;9.482;2023-09-19T00:41:31;10.93;;;2.05;;
69956;SDS011;57283;54.816;9.482;2023-09-19T00:44:01;12.00;;;2.70;;
69956;SDS011;57283;54.816;9.482;2023-09-19T00:46:30;12.30;;;2.60;;
69956;SDS011;57283;54.816;9.482;2023-09-19T00:48:59;8.88;;;2.47;;
69956;SDS011;57283;54.816;9.482;2023-09-19T00:51:27;9.20;;;2.30;;
69956;SDS011;57283;54.816;9.482;2023-09-19T00:53:56;9.88;;;2.10;;
69956;SDS011;57283;54.816;9.482;2023-09-19T00:56:27;7.77;;;1.60;;
69956;SDS011;57283;54.816;9.482;2023-09-19T00:58:54;10.73;;;2.22;;
69956;SDS011;57283;54.816;9.482;2023-09-19T01:01:22;7.32;;;1.83;;
69956;SDS011;57283;54.816;9.482;2023-09-19T01:03:50;8.80;;;1.83;;
69956;SDS011;57283;54.816;9.482;2023-09-19T01:06:18;5.55;;;1.50;;
69956;SDS011;57283;54.816;9.482;2023-09-19T01:08:46;7.70;;;1.67;;
69956;SDS011;57283;54.816;9.482;2023-09-19T01:11:14;8.10;;;1.88;;
69956;SDS011;57283;54.816;9.482;2023-09-19T01:13:50;5.70;;;1.92;;
69956;SDS011;57283;54.816;9.482;2023-09-19T01:16:32;9.65;;;2.10;;
69956;SDS011;57283;54.816;9.482;2023-09-19T01:19:04;8.95;;;2.13;;
69956;SDS011;57283;54.816;9.482;2023-09-19T01:21:36;6.73;;;1.70;;
69956;SDS011;57283;54.816;9.482;2023-09-19T01:24:17;8.43;;;1.92;;
69956;SDS011;57283;54.816;9.482;2023-09-19T01:26:55;7.68;;;1.92;;
69956;SDS011;57283;54.816;9.482;2023-09-19T01:29:33;9.02;;;2.35;;
69956;SDS011;57283;54.816;9.482;2023-09-19T01:32:06;9.60;;;2.00;;
69956;SDS011;57283;54.816;9.482;2023-09-19T01:34:46;9.20;;;2.10;;
69956;SDS011;57283;54.816;9.482;2023-09-19T01:37:15;9.07;;;2.13;;
69956;SDS011;57283;54.816;9.482;2023-09-19T01:39:46;6.43;;;1.80;;
69956;SDS011;57283;54.816;9.482;2023-09-19T01:42:18;6.20;;;1.90;;
69956;SDS011;57283;54.816;9.482;2023-09-19T01:44:51;6.75;;;1.60;;
69956;SDS011;57283;54.816;9.482;2023-09-19T01:47:23;8.57;;;1.80;;
69956;SDS011;57283;54.816;9.482;2023-09-19T01:49:55;6.38;;;1.70;;
69956;SDS011;57283;54.816;9.482;2023-09-19T01:52:23;11.55;;;2.28;;
69956;SDS011;57283;54.816;9.482;2023-09-19T01:54:56;5.75;;;1.60;;
69956;SDS011;57283;54.816;9.482;2023-09-19T01:57:26;6.80;;;1.95;;
69956;SDS011;57283;54.816;9.482;2023-09-19T01:59:57;6.03;;;2.40;;
69956;SDS011;57283;54.816;9.482;2023-09-19T02:02:28;9.45;;;1.90;;
69956;SDS011;57283;54.816;9.482;2023-09-19T02:04:56;5.72;;;1.60;;
69956;SDS011;57283;54.816;9.482;2023-09-19T02:07:24;7.78;;;1.98;;
69956;SDS011;57283;54.816;9.482;2023-09-19T02:09:53;6.43;;;1.73;;
69956;SDS011;57283;54.816;9.482;2023-09-19T02:12:21;5.53;;;1.73;;
69956;SDS011;57283;54.816;9.482;2023-09-19T02:14:49;7.20;;;1.92;;
69956;SDS011;57283;54.816;9.482;2023-09-19T02:17:16;5.65;;;1.70;;
69956;SDS011;57283;54.816;9.482;2023-09-19T02:19:45;6.70;;;1.65;;
69956;SDS011;57283;54.816;9.482;2023-09-19T02:22:13;9.38;;;1.80;;
69956;SDS011;57283;54.816;9.482;2023-09-19T02:24:42;7.33;;;1.60;;
69956;SDS011;57283;54.816;9.482;2023-09-19T02:27:10;8.25;;;1.80;;
69956;SDS011;57283;54.816;9.482;2023-09-19T02:29:39;3.95;;;1.40;;
69956;SDS011;57283;54.816;9.482;2023-09-19T02:32:05;4.90;;;1.70;;
69956;SDS011;57283;54.816;9.482;2023-09-19T02:34:33;5.90;;;1.60;;
69956;SDS011;57283;54.816;9.482;2023-09-19T02:37:04;6.37;;;1.60;;
69956;SDS011;57283;54.816;9.482;2023-09-19T02:39:32;9.20;;;1.83;;
69956;SDS011;57283;54.816;9.482;2023-09-19T02:42:01;6.00;;;1.65;;
69956;SDS011;57283;54.816;9.482;2023-09-19T02:44:29;6.20;;;1.35;;
69956;SDS011;57283;54.816;9.482;2023-09-19T02:46:56;4.43;;;1.40;;
69956;SDS011;57283;54.816;9.482;2023-09-19T02:49:25;5.03;;;1.40;;
69956;SDS011;57283;54.816;9.482;2023-09-19T02:51:53;5.72;;;1.30;;
69956;SDS011;57283;54.816;9.482;2023-09-19T02:54:22;4.13;;;1.50;;
69956;SDS011;57283;54.816;9.482;2023-09-19T02:56:55;7.70;;;1.42;;
69956;SDS011;57283;54.816;9.482;2023-09-19T02:59:23;6.20;;;2.00;;
69956;SDS011;57283;54.816;9.482;2023-09-19T03:01:51;3.73;;;1.40;;
69956;SDS011;57283;54.816;9.482;2023-09-19T03:04:21;5.43;;;1.60;;
69956;SDS011;57283;54.816;9.482;2023-09-19T03:06:48;5.80;;;1.77;;
69956;SDS011;57283;54.816;9.482;2023-09-19T03:09:17;6.13;;;2.00;;
69956;SDS011;57283;54.816;9.482;2023-09-19T03:11:47;7.32;;;1.80;;
69956;SDS011;57283;54.816;9.482;2023-09-19T03:14:14;6.03;;;1.63;;
69956;SDS011;57283;54.816;9.482;2023-09-19T03:16:42;5.57;;;1.60;;
69956;SDS011;57283;54.816;9.482;2023-09-19T03:19:11;5.30;;;1.52;;
69956;SDS011;57283;54.816;9.482;2023-09-19T03:21:41;5.10;;;1.50;;
69956;SDS011;57283;54.816;9.482;2023-09-19T03:24:09;6.82;;;1.55;;
69956;SDS011;57283;54.816;9.482;2023-09-19T03:26:37;5.90;;;1.40;;
69956;SDS011;57283;54.816;9.482;2023-09-19T03:29:07;5.07;;;1.80;;
69956;SDS011;57283;54.816;9.482;2023-09-19T03:31:36;8.43;;;1.55;;
69956;SDS011;57283;54.816;9.482;2023-09-19T03:34:04;7.25;;;1.85;;
69956;SDS011;57283;54.816;9.482;2023-09-19T03:36:37;6.88;;;1.92;;
69956;SDS011;57283;54.816;9.482;2023-09-19T03:39:05;6.37;;;2.03;;
69956;SDS011;57283;54.816;9.482;2023-09-19T03:41:34;8.57;;;1.88;;
69956;SDS011;57283;54.816;9.482;2023-09-19T03:44:02;7.10;;;1.60;;
69956;SDS011;57283;54.816;9.482;2023-09-19T03:46:32;5.78;;;2.15;;
69956;SDS011;57283;54.816;9.482;2023-09-19T03:49:02;10.20;;;2.08;;
69956;SDS011;57283;54.816;9.482;2023-09-19T03:51:30;8.93;;;1.87;;
69956;SDS011;57283;54.816;9.482;2023-09-19T03:53:57;7.20;;;1.90;;
69956;SDS011;57283;54.816;9.482;2023-09-19T03:56:25;7.43;;;2.00;;
69956;SDS011;57283;54.816;9.482;2023-09-19T03:58:53;5.90;;;1.67;;
69956;SDS011;57283;54.816;9.482;2023-09-19T04:01:21;7.32;;;1.58;;
69956;SDS011;57283;54.816;9.482;2023-09-19T04:03:50;8.90;;;1.70;;
69956;SDS011;57283;54.816;9.482;2023-09-19T04:06:20;6.00;;;1.90;;
69956;SDS011;57283;54.816;9.482;2023-09-19T04:08:47;7.85;;;1.67;;
69956;SDS011;57283;54.816;9.482;2023-09-19T04:11:15;8.60;;;1.80;;
69956;SDS011;57283;54.816;9.482;2023-09-19T04:13:42;6.57;;;1.50;;
69956;SDS011;57283;54.816;9.482;2023-09-19T04:16:10;10.67;;;2.27;;
69956;SDS011;57283;54.816;9.482;2023-09-19T04:18:38;5.53;;;1.60;;
69956;SDS011;57283;54.816;9.482;2023-09-19T04:21:07;9.20;;;1.98;;
69956;SDS011;57283;54.816;9.482;2023-09-19T04:23:35;6.70;;;1.67;;
69956;SDS011;57283;54.816;9.482;2023-09-19T04:26:02;7.95;;;1.80;;
69956;SDS011;57283;54.816;9.482;2023-09-19T04:28:32;6.20;;;1.50;;
69956;SDS011;57283;54.816;9.482;2023-09-19T04:31:00;5.85;;;1.30;;
69956;SDS011;57283;54.816;9.482;2023-09-19T04:33:28;7.95;;;1.50;;
69956;SDS011;57283;54.816;9.482;2023-09-19T04:35:55;8.20;;;1.83;;
69956;SDS011;57283;54.816;9.482;2023-09-19T04:38:34;7.07;;;1.70;;
69956;SDS011;57283;54.816;9.482;2023-09-19T04:41:03;11.00;;;1.60;;
69956;SDS011;57283;54.816;9.482;2023-09-19T04:43:30;6.72;;;2.25;;
69956;SDS011;57283;54.816;9.482;2023-09-19T04:45:58;7.53;;;1.70;;
69956;SDS011;57283;54.816;9.482;2023-09-19T04:48:26;7.30;;;1.80;;
69956;SDS011;57283;54.816;9.482;2023-09-19T04:50:55;7.05;;;1.80;;
69956;SDS011;57283;54.816;9.482;2023-09-19T04:53:23;6.93;;;1.53;;
69956;SDS011;57283;54.816;9.482;2023-09-19T04:55:52;6.35;;;1.77;;
69956;SDS011;57283;54.816;9.482;2023-09-19T04:58:21;7.57;;;1.52;;
69956;SDS011;57283;54.816;9.482;2023-09-19T05:00:49;7.32;;;1.70;;
69956;SDS011;57283;54.816;9.482;2023-09-19T05:03:18;7.32;;;1.50;;
69956;SDS011;57283;54.816;9.482;2023-09-19T05:05:46;5.67;;;1.47;;
69956;SDS011;57283;54.816;9.482;2023-09-19T05:08:14;5.05;;;1.50;;
69956;SDS011;57283;54.816;9.482;2023-09-19T05:10:42;3.85;;;1.20;;
69956;SDS011;57283;54.816;9.482;2023-09-19T05:13:11;6.80;;;1.40;;
69956;SDS011;57283;54.816;9.482;2023-09-19T05:15:39;4.43;;;1.40;;
69956;SDS011;57283;54.816;9.482;2023-09-19T05:18:07;5.20;;;1.40;;
69956;SDS011;57283;54.816;9.482;2023-09-19T05:20:34;6.15;;;1.58;;
69956;SDS011;57283;54.816;9.482;2023-09-19T05:23:05;7.78;;;1.75;;
69956;SDS011;57283;54.816;9.482;2023-09-19T05:25:34;4.50;;;1.40;;
69956;SDS011;57283;54.816;9.482;2023-09-19T05:28:04;4.30;;;1.40;;
69956;SDS011;57283;54.816;9.482;2023-09-19T05:30:33;6.23;;;1.93;;
69956;SDS011;57283;54.816;9.482;2023-09-19T05:33:02;5.90;;;1.67;;
69956;SDS011;57283;54.816;9.482;2023-09-19T05:35:31;6.32;;;1.67;;
69956;SDS011;57283;54.816;9.482;2023-09-19T05:37:59;4.88;;;1.50;;
69956;SDS011;57283;54.816;9.482;2023-09-19T05:40:26;6.25;;;1.35;;
69956;SDS011;57283;54.816;9.482;2023-09-19T05:42:54;4.60;;;1.40;;
69956;SDS011;57283;54.816;9.482;2023-09-19T05:45:22;3.83;;;1.10;;
69956;SDS011;57283;54.816;9.482;2023-09-19T05:47:51;6.45;;;1.15;;
69956;SDS011;57283;54.816;9.482;2023-09-19T05:50:22;5.05;;;1.10;;
69956;SDS011;57283;54.816;9.482;2023-09-19T05:52:51;5.70;;;1.48;;
69956;SDS011;57283;54.816;9.482;2023-09-19T05:55:19;5.40;;;1.30;;
69956;SDS011;57283;54.816;9.482;2023-09-19T05:57:49;4.47;;;1.30;;
69956;SDS011;57283;54.816;9.482;2023-09-19T06:00:18;7.28;;;1.30;;
69956;SDS011;57283;54.816;9.482;2023-09-19T06:02:49;8.20;;;1.23;;
69956;SDS011;57283;54.816;9.482;2023-09-19T06:05:19;4.18;;;1.30;;
69956;SDS011;57283;54.816;9.482;2023-09-19T06:07:46;6.43;;;1.50;;
69956;SDS011;57283;54.816;9.482;2023-09-19T06:10:14;6.18;;;1.27;;
69956;SDS011;57283;54.816;9.482;2023-09-19T06:12:43;5.05;;;1.25;;
69956;SDS011;57283;54.816;9.482;2023-09-19T06:15:12;7.30;;;1.40;;
69956;SDS011;57283;54.816;9.482;2023-09-19T06:17:41;6.50;;;1.50;;
69956;SDS011;57283;54.816;9.482;2023-09-19T06:20:09;6.57;;;1.40;;
69956;SDS011;57283;54.816;9.482;2023-09-19T06:22:42;6.75;;;1.70;;
69956;SDS011;57283;54.816;9.482;2023-09-19T06:25:11;4.55;;;1.45;;
69956;SDS011;57283;54.816;9.482;2023-09-19T06:27:39;5.47;;;1.70;;
69956;SDS011;57283;54.816;9.482;2023-09-19T06:30:09;6.45;;;1.90;;
69956;SDS011;57283;54.816;9.482;2023-09-19T06:32:37;5.93;;;1.60;;
69956;SDS011;57283;54.816;9.482;2023-09-19T06:35:06;6.07;;;1.60;;
69956;SDS011;57283;54.816;9.482;2023-09-19T06:37:35;6.35;;;1.55;;
69956;SDS011;57283;54.816;9.482;2023-09-19T06:40:07;8.43;;;1.40;;
69956;SDS011;57283;54.816;9.482;2023-09-19T06:42:36;4.60;;;1.67;;
69956;SDS011;57283;54.816;9.482;2023-09-19T06:45:04;4.93;;;1.33;;
69956;SDS011;57283;54.816;9.482;2023-09-19T06:47:32;6.63;;;1.63;;
69956;SDS011;57283;54.816;9.482;2023-09-19T06:50:01;8.88;;;1.73;;
69956;SDS011;57283;54.816;9.482;2023-09-19T06:52:30;5.65;;;1.27;;
69956;SDS011;57283;54.816;9.482;2023-09-19T06:54:59;7.55;;;1.90;;
69956;SDS011;57283;54.816;9.482;2023-09-19T06:57:30;5.23;;;1.40;;
69956;SDS011;57283;54.816;9.482;2023-09-19T06:59:58;7.75;;;1.77;;
69956;SDS011;57283;54.816;9.482;2023-09-19T07:02:27;8.98;;;1.63;;
69956;SDS011;57283;54.816;9.482;2023-09-19T07:04:55;7.47;;;1.80;;
69956;SDS011;57283;54.816;9.482;2023-09-19T07:07:23;7.45;;;1.70;;
69956;SDS011;57283;54.816;9.482;2023-09-19T07:09:50;8.50;;;1.90;;
69956;SDS011;57283;54.816;9.482;2023-09-19T07:12:20;5.25;;;1.27;;
69956;SDS011;57283;54.816;9.482;2023-09-19T07:14:49;6.30;;;1.75;;
69956;SDS011;57283;54.816;9.482;2023-09-19T07:17:16;7.05;;;1.83;;
69956;SDS011;57283;54.816;9.482;2023-09-19T07:19:45;4.10;;;1.30;;
69956;SDS011;57283;54.816;9.482;2023-09-19T07:22:14;7.40;;;1.60;;
69956;SDS011;57283;54.816;9.482;2023-09-19T07:24:42;5.10;;;1.48;;
69956;SDS011;57283;54.816;9.482;2023-09-19T07:27:10;6.20;;;1.50;;
69956;SDS011;57283;54.816;9.482;2023-09-19T07:29:37;6.93;;;1.77;;
69956;SDS011;57283;54.816;9.482;2023-09-19T07:32:07;6.28;;;1.50;;
69956;SDS011;57283;54.816;9.482;2023-09-19T07:34:36;7.60;;;1.60;;
69956;SDS011;57283;54.816;9.482;2023-09-19T07:37:05;7.50;;;1.55;;
69956;SDS011;57283;54.816;9.482;2023-09-19T07:39:33;5.90;;;1.40;;
69956;SDS011;57283;54.816;9.482;2023-09-19T07:42:00;5.80;;;1.40;;
69956;SDS011;57283;54.816;9.482;2023-09-19T07:44:28;5.47;;;1.67;;
69956;SDS011;57283;54.816;9.482;2023-09-19T07:46:55;4.93;;;1.50;;
69956;SDS011;57283;54.816;9.482;2023-09-19T07:49:24;7.07;;;1.55;;
69956;SDS011;57283;54.816;9.482;2023-09-19T07:51:52;6.03;;;1.33;;
69956;SDS011;57283;54.816;9.482;2023-09-19T07:54:20;4.32;;;1.40;;
69956;SDS011;57283;54.816;9.482;2023-09-19T07:56:48;5.03;;;1.45;;
69956;SDS011;57283;54.816;9.482;2023-09-19T07:59:16;4.60;;;1.33;;
69956;SDS011;57283;54.816;9.482;2023-09-19T08:01:44;6.13;;;1.77;;
69956;SDS011;57283;54.816;9.482;2023-09-19T08:04:11;8.10;;;1.50;;
69956;SDS011;57283;54.816;9.482;2023-09-19T08:06:40;4.07;;;1.30;;
69956;SDS011;57283;54.816;9.482;2023-09-19T08:09:08;6.13;;;1.55;;
69956;SDS011;57283;54.816;9.482;2023-09-19T08:11:37;7.27;;;1.73;;
69956;SDS011;57283;54.816;9.482;2023-09-19T08:14:05;5.53;;;1.60;;
69956;SDS011;57283;54.816;9.482;2023-09-19T08:16:34;6.50;;;1.80;;
69956;SDS011;57283;54.816;9.482;2023-09-19T08:19:02;4.55;;;1.60;;
69956;SDS011;57283;54.816;9.482;2023-09-19T08:21:29;7.72;;;1.77;;
69956;SDS011;57283;54.816;9.482;2023-09-19T08:23:59;9.47;;;1.73;;
69956;SDS011;57283;54.816;9.482;2023-09-19T08:26:28;7.28;;;1.67;;
69956;SDS011;57283;54.816;9.482;2023-09-19T08:28:55;8.48;;;2.10;;
69956;SDS011;57283;54.816;9.482;2023-09-19T08:31:23;8.30;;;1.63;;
69956;SDS011;57283;54.816;9.482;2023-09-19T08:33:52;5.20;;;1.67;;
69956;SDS011;57283;54.816;9.482;2023-09-19T08:36:22;6.63;;;2.03;;
69956;SDS011;57283;54.816;9.482;2023-09-19T08:38:50;8.98;;;2.05;;
69956;SDS011;57283;54.816;9.482;2023-09-19T08:41:19;4.95;;;1.80;;
69956;SDS011;57283;54.816;9.482;2023-09-19T08:43:46;6.00;;;2.33;;
69956;SDS011;57283;54.816;9.482;2023-09-19T08:46:15;6.55;;;1.95;;
69956;SDS011;57283;54.816;9.482;2023-09-19T08:48:45;7.13;;;1.87;;
69956;SDS011;57283;54.816;9.482;2023-09-19T08:51:17;5.93;;;1.70;;
69956;SDS011;57283;54.816;9.482;2023-09-19T08:53:47;7.72;;;1.90;;
69956;SDS011;57283;54.816;9.482;2023-09-19T08:56:18;5.72;;;1.80;;
69956;SDS011;57283;54.816;9.482;2023-09-19T08:58:48;6.97;;;2.25;;
69956;SDS011;57283;54.816;9.482;2023-09-19T09:01:17;6.03;;;1.77;;
69956;SDS011;57283;54.816;9.482;2023-09-19T09:03:51;6.57;;;1.77;;
69956;SDS011;57283;54.816;9.482;2023-09-19T09:06:20;5.25;;;1.60;;
69956;SDS011;57283;54.816;9.482;2023-09-19T09:08:47;5.40;;;1.60;;
69956;SDS011;57283;54.816;9.482;2023-09-19T09:11:15;5.65;;;1.75;;
69956;SDS011;57283;54.816;9.482;2023-09-19T09:13:45;5.37;;;2.00;;
69956;SDS011;57283;54.816;9.482;2023-09-19T09:16:13;7.30;;;1.70;;
69956;SDS011;57283;54.816;9.482;2023-09-19T09:18:45;6.72;;;2.03;;
69956;SDS011;57283;54.816;9.482;2023-09-19T09:21:13;5.13;;;1.90;;
69956;SDS011;57283;54.816;9.482;2023-09-19T09:23:42;5.22;;;1.80;;
69956;SDS011;57283;54.816;9.482;2023-09-19T09:26:09;5.90;;;2.00;;
69956;SDS011;57283;54.816;9.482;2023-09-19T09:28:44;7.90;;;1.90;;
69956;SDS011;57283;54.816;9.482;2023-09-19T09:31:23;7.70;;;2.03;;
69956;SDS011;57283;54.816;9.482;2023-09-19T09:33:55;5.97;;;1.92;;
69956;SDS011;57283;54.816;9.482;2023-09-19T09:36:33;9.73;;;2.25;;
69956;SDS011;57283;54.816;9.482;2023-09-19T09:39:03;7.63;;;2.37;;
69956;SDS011;57283;54.816;9.482;2023-09-19T09:41:43;9.40;;;2.10;;
69956;SDS011;57283;54.816;9.482;2023-09-19T09:44:12;6.85;;;1.90;;
69956;SDS011;57283;54.816;9.482;2023-09-19T09:46:43;11.68;;;2.10;;
69956;SDS011;57283;54.816;9.482;2023-09-19T09:49:26;8.75;;;2.10;;
69956;SDS011;57283;54.816;9.482;2023-09-19T09:52:00;9.07;;;2.10;;
69956;SDS011;57283;54.816;9.482;2023-09-19T09:54:35;7.30;;;2.15;;
69956;SDS011;57283;54.816;9.482;2023-09-19T09:57:04;8.10;;;1.88;;
69956;SDS011;57283;54.816;9.482;2023-09-19T09:59:44;8.88;;;2.53;;
69956;SDS011;57283;54.816;9.482;2023-09-19T10:02:15;9.55;;;2.75;;
69956;SDS011;57283;54.816;9.482;2023-09-19T10:04:49;7.93;;;2.27;;
69956;SDS011;57283;54.816;9.482;2023-09-19T10:07:26;7.45;;;2.03;;
69956;SDS011;57283;54.816;9.482;2023-09-19T10:09:59;7.65;;;2.13;;
69956;SDS011;57283;54.816;9.482;2023-09-19T10:12:38;7.93;;;1.90;;
69956;SDS011;57283;54.816;9.482;2023-09-19T10:15:06;8.60;;;2.15;;
69956;SDS011;57283;54.816;9.482;2023-09-19T10:17:38;6.53;;;1.83;;
69956;SDS011;57283;54.816;9.482;2023-09-19T10:20:12;7.03;;;2.25;;
69956;SDS011;57283;54.816;9.482;2023-09-19T10:22:50;8.15;;;2.13;;
69956;SDS011;57283;54.816;9.482;2023-09-19T10:25:25;6.40;;;2.28;;
69956;SDS011;57283;54.816;9.482;2023-09-19T10:27:55;5.60;;;1.83;;
69956;SDS011;57283;54.816;9.482;2023-09-19T10:30:26;9.20;;;2.07;;
69956;SDS011;57283;54.816;9.482;2023-09-19T10:32:59;8.13;;;2.00;;
69956;SDS011;57283;54.816;9.482;2023-09-19T10:35:28;8.05;;;1.73;;
69956;SDS011;57283;54.816;9.482;2023-09-19T10:37:57;5.45;;;2.20;;
69956;SDS011;57283;54.816;9.482;2023-09-19T10:40:26;7.43;;;1.90;;
69956;SDS011;57283;54.816;9.482;2023-09-19T10:43:00;3.93;;;1.77;;
69956;SDS011;57283;54.816;9.482;2023-09-19T10:45:30;7.32;;;2.33;;
69956;SDS011;57283;54.816;9.482;2023-09-19T10:47:59;5.25;;;2.17;;
69956;SDS011;57283;54.816;9.482;2023-09-19T10:50:29;7.43;;;2.60;;
69956;SDS011;57283;54.816;9.482;2023-09-19T10:52:59;7.03;;;1.98;;
69956;SDS011;57283;54.816;9.482;2023-09-19T10:55:34;8.67;;;2.47;;
69956;SDS011;57283;54.816;9.482;2023-09-19T10:58:03;8.10;;;2.53;;
69956;SDS011;57283;54.816;9.482;2023-09-19T11:00:53;8.43;;;2.10;;
69956;SDS011;57283;54.816;9.482;2023-09-19T11:03:23;6.63;;;2.70;;
69956;SDS011;57283;54.816;9.482;2023-09-19T11:06:03;6.50;;;2.60;;
69956;SDS011;57283;54.816;9.482;2023-09-19T11:08:52;6.07;;;2.90;;
69956;SDS011;57283;54.816;9.482;2023-09-19T11:11:41;7.43;;;2.53;;
69956;SDS011;57283;54.816;9.482;2023-09-19T11:14:13;6.05;;;2.50;;
69956;SDS011;57283;54.816;9.482;2023-09-19T11:19:25;6.35;;;2.15;;
69956;SDS011;57283;54.816;9.482;2023-09-19T11:22:14;8.67;;;2.40;;
69956;SDS011;57283;54.816;9.482;2023-09-19T11:24:42;8.32;;;2.53;;
69956;SDS011;57283;54.816;9.482;2023-09-19T11:27:10;8.27;;;2.53;;
69956;SDS011;57283;54.816;9.482;2023-09-19T11:29:40;6.32;;;2.40;;
69956;SDS011;57283;54.816;9.482;2023-09-19T11:32:08;5.80;;;2.15;;
69956;SDS011;57283;54.816;9.482;2023-09-19T11:40:09;5.10;;;2.10;;
69956;SDS011;57283;54.816;9.482;2023-09-19T11:42:43;7.40;;;2.15;;
69956;SDS011;57283;54.816;9.482;2023-09-19T11:47:57;7.20;;;2.10;;
69956;SDS011;57283;54.816;9.482;2023-09-19T11:50:26;7.90;;;2.22;;
69956;SDS011;57283;54.816;9.482;2023-09-19T11:52:55;7.15;;;2.28;;
69956;SDS011;57283;54.816;9.482;2023-09-19T11:55:24;7.35;;;2.10;;
69956;SDS011;57283;54.816;9.482;2023-09-19T11:57:54;7.45;;;2.10;;
69956;SDS011;57283;54.816;9.482;2023-09-19T12:00:22;5.53;;;2.23;;
69956;SDS011;57283;54.816;9.482;2023-09-19T12:02:50;7.90;;;2.08;;
69956;SDS011;57283;54.816;9.482;2023-09-19T12:05:27;5.28;;;1.90;;
69956;SDS011;57283;54.816;9.482;2023-09-19T12:07:55;11.02;;;2.17;;
69956;SDS011;57283;54.816;9.482;2023-09-19T12:10:24;7.93;;;2.28;;
69956;SDS011;57283;54.816;9.482;2023-09-19T12:12:52;9.03;;;2.17;;
69956;SDS011;57283;54.816;9.482;2023-09-19T12:15:23;6.38;;;1.92;;
69956;SDS011;57283;54.816;9.482;2023-09-19T12:17:54;8.68;;;2.10;;
69956;SDS011;57283;54.816;9.482;2023-09-19T12:20:22;8.30;;;2.05;;
69956;SDS011;57283;54.816;9.482;2023-09-19T12:22:50;9.10;;;1.92;;
69956;SDS011;57283;54.816;9.482;2023-09-19T12:25:17;11.27;;;1.90;;
69956;SDS011;57283;54.816;9.482;2023-09-19T12:27:49;9.02;;;1.90;;
69956;SDS011;57283;54.816;9.482;2023-09-19T12:30:19;7.53;;;2.08;;
69956;SDS011;57283;54.816;9.482;2023-09-19T12:32:53;8.20;;;1.95;;
69956;SDS011;57283;54.816;9.482;2023-09-19T12:35:28;7.55;;;2.33;;
69956;SDS011;57283;54.816;9.482;2023-09-19T12:37:57;7.57;;;2.43;;
69956;SDS011;57283;54.816;9.482;2023-09-19T12:40:25;7.80;;;2.58;;
69956;SDS011;57283;54.816;9.482;2023-09-19T12:42:57;9.02;;;2.22;;
69956;SDS011;57283;54.816;9.482;2023-09-19T12:45:26;9.45;;;2.28;;
69956;SDS011;57283;54.816;9.482;2023-09-19T12:53:26;7.57;;;2.33;;
69956;SDS011;57283;54.816;9.482;2023-09-19T12:55:58;8.27;;;2.25;;
69956;SDS011;57283;54.816;9.482;2023-09-19T12:58:27;9.20;;;2.80;;
69956;SDS011;57283;54.816;9.482;2023-09-19T13:00:57;11.45;;;2.60;;
69956;SDS011;57283;54.816;9.482;2023-09-19T13:03:25;10.77;;;2.50;;
69956;SDS011;57283;54.816;9.482;2023-09-19T13:05:55;7.40;;;2.20;;
69956;SDS011;57283;54.816;9.482;2023-09-19T13:08:25;7.00;;;2.28;;
69956;SDS011;57283;54.816;9.482;2023-09-19T13:11:04;10.60;;;2.50;;
69956;SDS011;57283;54.816;9.482;2023-09-19T13:13:35;8.00;;;2.20;;
69956;SDS011;57283;54.816;9.482;2023-09-19T13:16:03;5.30;;;2.30;;
69956;SDS011;57283;54.816;9.482;2023-09-19T13:18:46;9.75;;;2.80;;
69956;SDS011;57283;54.816;9.482;2023-09-19T13:21:17;7.55;;;2.40;;
69956;SDS011;57283;54.816;9.482;2023-09-19T13:23:51;7.22;;;2.15;;
69956;SDS011;57283;54.816;9.482;2023-09-19T13:26:20;5.20;;;2.00;;
69956;SDS011;57283;54.816;9.482;2023-09-19T13:28:50;9.00;;;2.50;;
69956;SDS011;57283;54.816;9.482;2023-09-19T13:31:18;10.30;;;2.58;;
69956;SDS011;57283;54.816;9.482;2023-09-19T13:33:46;8.57;;;2.38;;
69956;SDS011;57283;54.816;9.482;2023-09-19T13:36:14;9.43;;;2.45;;
69956;SDS011;57283;54.816;9.482;2023-09-19T13:38:42;7.50;;;2.45;;
69956;SDS011;57283;54.816;9.482;2023-09-19T13:41:13;8.53;;;2.67;;
69956;SDS011;57283;54.816;9.482;2023-09-19T13:43:41;7.20;;;2.55;;
69956;SDS011;57283;54.816;9.482;2023-09-19T13:46:11;8.80;;;2.38;;
69956;SDS011;57283;54.816;9.482;2023-09-19T13:48:42;9.75;;;2.58;;
69956;SDS011;57283;54.816;9.482;2023-09-19T13:51:09;10.90;;;2.65;;
69956;SDS011;57283;54.816;9.482;2023-09-19T13:53:37;8.97;;;2.57;;
69956;SDS011;57283;54.816;9.482;2023-09-19T13:56:05;9.75;;;2.63;;
69956;SDS011;57283;54.816;9.482;2023-09-19T13:58:33;7.95;;;2.60;;
69956;SDS011;57283;54.816;9.482;2023-09-19T14:01:01;8.32;;;2.40;;
69956;SDS011;57283;54.816;9.482;2023-09-19T14:03:32;9.88;;;2.45;;
69956;SDS011;57283;54.816;9.482;2023-09-19T14:06:00;7.80;;;2.37;;
69956;SDS011;57283;54.816;9.482;2023-09-19T14:08:27;9.88;;;2.60;;
69956;SDS011;57283;54.816;9.482;2023-09-19T14:10:55;7.32;;;2.42;;
69956;SDS011;57283;54.816;9.482;2023-09-19T14:13:23;9.25;;;2.65;;
69956;SDS011;57283;54.816;9.482;2023-09-19T14:15:51;10.35;;;2.53;;
69956;SDS011;57283;54.816;9.482;2023-09-19T14:18:20;12.20;;;2.57;;
69956;SDS011;57283;54.816;9.482;2023-09-19T14:20:49;7.68;;;2.38;;
69956;SDS011;57283;54.816;9.482;2023-09-19T14:23:19;6.93;;;2.50;;
69956;SDS011;57283;54.816;9.482;2023-09-19T14:25:47;8.25;;;2.38;;
69956;SDS011;57283;54.816;9.482;2023-09-19T14:28:14;7.88;;;2.08;;
69956;SDS011;57283;54.816;9.482;2023-09-19T14:30:42;8.33;;;2.27;;
69956;SDS011;57283;54.816;9.482;2023-09-19T14:33:10;8.25;;;2.33;;
69956;SDS011;57283;54.816;9.482;2023-09-19T14:35:37;8.20;;;2.15;;
69956;SDS011;57283;54.816;9.482;2023-09-19T14:38:06;12.05;;;2.40;;
69956;SDS011;57283;54.816;9.482;2023-09-19T14:40:34;8.18;;;2.45;;
69956;SDS011;57283;54.816;9.482;2023-09-19T14:43:02;6.33;;;1.97;;
69956;SDS011;57283;54.816;9.482;2023-09-19T14:45:30;10.40;;;2.40;;
69956;SDS011;57283;54.816;9.482;2023-09-19T14:47:58;8.05;;;2.28;;
69956;SDS011;57283;54.816;9.482;2023-09-19T14:50:25;6.60;;;2.40;;
69956;SDS011;57283;54.816;9.482;2023-09-19T14:52:53;9.05;;;2.35;;
69956;SDS011;57283;54.816;9.482;2023-09-19T14:55:22;7.30;;;2.30;;
69956;SDS011;57283;54.816;9.482;2023-09-19T14:57:50;12.57;;;2.50;;
69956;SDS011;57283;54.816;9.482;2023-09-19T15:00:19;7.25;;;2.33;;
69956;SDS011;57283;54.816;9.482;2023-09-19T15:02:49;9.63;;;2.45;;
69956;SDS011;57283;54.816;9.482;2023-09-19T15:05:18;11.18;;;2.30;;
69956;SDS011;57283;54.816;9.482;2023-09-19T15:07:46;6.80;;;2.47;;
69956;SDS011;57283;54.816;9.482;2023-09-19T15:10:14;6.80;;;2.35;;
69956;SDS011;57283;54.816;9.482;2023-09-19T15:12:44;9.98;;;2.47;;
69956;SDS011;57283;54.816;9.482;2023-09-19T15:15:11;7.70;;;2.20;;
69956;SDS011;57283;54.816;9.482;2023-09-19T15:17:39;9.27;;;2.58;;
69956;SDS011;57283;54.816;9.482;2023-09-19T15:20:07;6.33;;;2.13;;